sensor_id;sensor_type;location;lat;lon;timestamp;P1;durP1;ratioP1;P2;durP2;ratioP2
15748;SDS011;7976;52.526;13.326;2023-04-24T00:01:06;11.18;;;4.78;;
15748;SDS011;7976;52.526;13.326;2023-04-24T00:03:34;13.60;;;5.07;;
15748;SDS011;7976;52.526;13.326;2023-04-24T00:06:01;13.15;;;5.28;;
15748;SDS011;7976;52.526;13.326;2023-04-24T00:08:28;12.50;;;5.22;;
15748;SDS011;7976;52.526;13.326;2023-04-24T00:10:57;9.85;;;4.30;;
15748;SDS011;7976;52.526;13.326;2023-04-24T00:13:24;10.93;;;4.28;;
15748;SDS011;7976;52.526;13.326;2023-04-24T00:15:50;10.18;;;4.25;;
15748;SDS011;7976;52.526;13.326;2023-04-24T00:18:17;11.63;;;4.50;;
15748;SDS011;7976;52.526;13.326;2023-04-24T00:20:44;9.82;;;4.47;;
15748;SDS011;7976;52.526;13.326;2023-04-24T00:23:11;12.00;;;4.30;;
15748;SDS011;7976;52.526;13.326;2023-04-24T00:25:39;10.77;;;4.13;;
15748;SDS011;7976;52.526;13.326;2023-04-24T00:28:07;9.70;;;3.92;;
15748;SDS011;7976;52.526;13.326;2023-04-24T00:30:34;10.15;;;4.22;;
15748;SDS011;7976;52.526;13.326;2023-04-24T00:33:01;11.15;;;4.32;;
15748;SDS011;7976;52.526;13.326;2023-04-24T00:35:28;9.95;;;4.03;;
15748;SDS011;7976;52.526;13.326;2023-04-24T00:37:55;9.63;;;4.13;;
15748;SDS011;7976;52.526;13.326;2023-04-24T00:40:22;10.20;;;4.05;;
15748;SDS011;7976;52.526;13.326;2023-04-24T00:42:49;9.20;;;3.97;;
15748;SDS011;7976;52.526;13.326;2023-04-24T00:45:17;9.55;;;4.05;;
15748;SDS011;7976;52.526;13.326;2023-04-24T00:47:45;10.38;;;4.72;;
15748;SDS011;7976;52.526;13.326;2023-04-24T00:50:14;8.95;;;3.80;;
15748;SDS011;7976;52.526;13.326;2023-04-24T00:52:42;9.75;;;4.00;;
15748;SDS011;7976;52.526;13.326;2023-04-24T00:55:09;11.23;;;4.38;;
15748;SDS011;7976;52.526;13.326;2023-04-24T00:57:36;9.13;;;3.83;;
15748;SDS011;7976;52.526;13.326;2023-04-24T01:00:03;9.48;;;4.28;;
15748;SDS011;7976;52.526;13.326;2023-04-24T01:02:38;11.32;;;4.30;;
15748;SDS011;7976;52.526;13.326;2023-04-24T01:05:09;8.50;;;3.70;;
15748;SDS011;7976;52.526;13.326;2023-04-24T01:07:36;9.77;;;3.67;;
15748;SDS011;7976;52.526;13.326;2023-04-24T01:10:05;10.93;;;4.07;;
15748;SDS011;7976;52.526;13.326;2023-04-24T01:12:36;9.80;;;4.13;;
15748;SDS011;7976;52.526;13.326;2023-04-24T01:15:04;10.98;;;3.90;;
15748;SDS011;7976;52.526;13.326;2023-04-24T01:17:34;10.05;;;3.92;;
15748;SDS011;7976;52.526;13.326;2023-04-24T01:20:02;10.00;;;3.97;;
15748;SDS011;7976;52.526;13.326;2023-04-24T01:22:32;8.95;;;3.70;;
15748;SDS011;7976;52.526;13.326;2023-04-24T01:25:00;9.15;;;3.47;;
15748;SDS011;7976;52.526;13.326;2023-04-24T01:27:29;9.52;;;4.00;;
15748;SDS011;7976;52.526;13.326;2023-04-24T01:29:56;8.95;;;4.10;;
15748;SDS011;7976;52.526;13.326;2023-04-24T01:32:23;8.88;;;3.83;;
15748;SDS011;7976;52.526;13.326;2023-04-24T01:34:51;10.02;;;4.13;;
15748;SDS011;7976;52.526;13.326;2023-04-24T01:37:18;9.75;;;3.90;;
15748;SDS011;7976;52.526;13.326;2023-04-24T01:39:46;9.57;;;3.80;;
15748;SDS011;7976;52.526;13.326;2023-04-24T01:42:13;9.57;;;3.92;;
15748;SDS011;7976;52.526;13.326;2023-04-24T01:44:40;9.35;;;4.07;;
15748;SDS011;7976;52.526;13.326;2023-04-24T01:47:07;8.77;;;3.72;;
15748;SDS011;7976;52.526;13.326;2023-04-24T01:49:35;9.23;;;4.20;;
15748;SDS011;7976;52.526;13.326;2023-04-24T01:52:04;9.50;;;3.97;;
15748;SDS011;7976;52.526;13.326;2023-04-24T01:54:31;9.70;;;4.07;;
15748;SDS011;7976;52.526;13.326;2023-04-24T01:56:59;10.52;;;4.63;;
15748;SDS011;7976;52.526;13.326;2023-04-24T01:59:27;9.65;;;4.13;;
15748;SDS011;7976;52.526;13.326;2023-04-24T02:01:55;11.27;;;4.30;;
15748;SDS011;7976;52.526;13.326;2023-04-24T02:04:22;11.73;;;4.10;;
15748;SDS011;7976;52.526;13.326;2023-04-24T02:06:49;9.32;;;3.90;;
15748;SDS011;7976;52.526;13.326;2023-04-24T02:09:16;10.57;;;4.38;;
15748;SDS011;7976;52.526;13.326;2023-04-24T02:11:43;11.00;;;4.32;;
15748;SDS011;7976;52.526;13.326;2023-04-24T02:14:11;11.80;;;4.60;;
15748;SDS011;7976;52.526;13.326;2023-04-24T02:16:39;9.18;;;4.35;;
15748;SDS011;7976;52.526;13.326;2023-04-24T02:19:06;10.13;;;4.50;;
15748;SDS011;7976;52.526;13.326;2023-04-24T02:21:33;12.15;;;4.72;;
15748;SDS011;7976;52.526;13.326;2023-04-24T02:24:00;9.95;;;4.50;;
15748;SDS011;7976;52.526;13.326;2023-04-24T02:26:27;9.95;;;4.70;;
15748;SDS011;7976;52.526;13.326;2023-04-24T02:28:56;10.20;;;4.38;;
15748;SDS011;7976;52.526;13.326;2023-04-24T02:31:24;8.90;;;4.18;;
15748;SDS011;7976;52.526;13.326;2023-04-24T02:33:51;9.43;;;4.55;;
15748;SDS011;7976;52.526;13.326;2023-04-24T02:36:18;9.82;;;4.00;;
15748;SDS011;7976;52.526;13.326;2023-04-24T02:38:47;10.57;;;4.57;;
15748;SDS011;7976;52.526;13.326;2023-04-24T02:41:13;11.15;;;4.65;;
15748;SDS011;7976;52.526;13.326;2023-04-24T02:43:41;11.20;;;5.10;;
15748;SDS011;7976;52.526;13.326;2023-04-24T02:46:08;9.32;;;3.92;;
15748;SDS011;7976;52.526;13.326;2023-04-24T02:48:36;10.13;;;4.72;;
15748;SDS011;7976;52.526;13.326;2023-04-24T02:51:04;10.27;;;4.40;;
15748;SDS011;7976;52.526;13.326;2023-04-24T02:53:32;10.20;;;4.65;;
15748;SDS011;7976;52.526;13.326;2023-04-24T02:55:59;10.05;;;4.55;;
15748;SDS011;7976;52.526;13.326;2023-04-24T02:58:26;9.52;;;4.32;;
15748;SDS011;7976;52.526;13.326;2023-04-24T03:00:53;10.63;;;5.20;;
15748;SDS011;7976;52.526;13.326;2023-04-24T03:03:21;10.57;;;4.68;;
15748;SDS011;7976;52.526;13.326;2023-04-24T03:05:50;10.05;;;4.63;;
15748;SDS011;7976;52.526;13.326;2023-04-24T03:08:16;10.82;;;4.70;;
15748;SDS011;7976;52.526;13.326;2023-04-24T03:10:43;9.85;;;4.40;;
15748;SDS011;7976;52.526;13.326;2023-04-24T03:13:10;10.50;;;4.80;;
15748;SDS011;7976;52.526;13.326;2023-04-24T03:15:37;10.25;;;4.68;;
15748;SDS011;7976;52.526;13.326;2023-04-24T03:18:04;10.35;;;4.57;;
15748;SDS011;7976;52.526;13.326;2023-04-24T03:20:31;10.43;;;4.63;;
15748;SDS011;7976;52.526;13.326;2023-04-24T03:22:59;11.02;;;4.88;;
15748;SDS011;7976;52.526;13.326;2023-04-24T03:25:26;10.23;;;4.90;;
15748;SDS011;7976;52.526;13.326;2023-04-24T03:27:53;11.15;;;4.70;;
15748;SDS011;7976;52.526;13.326;2023-04-24T03:30:41;10.55;;;4.43;;
15748;SDS011;7976;52.526;13.326;2023-04-24T03:33:08;10.48;;;4.70;;
15748;SDS011;7976;52.526;13.326;2023-04-24T03:35:41;10.52;;;4.72;;
15748;SDS011;7976;52.526;13.326;2023-04-24T03:38:12;10.40;;;5.00;;
15748;SDS011;7976;52.526;13.326;2023-04-24T03:41:17;10.40;;;4.45;;
15748;SDS011;7976;52.526;13.326;2023-04-24T03:43:48;9.80;;;4.35;;
15748;SDS011;7976;52.526;13.326;2023-04-24T03:46:15;9.13;;;4.20;;
15748;SDS011;7976;52.526;13.326;2023-04-24T03:48:48;10.18;;;5.10;;
15748;SDS011;7976;52.526;13.326;2023-04-24T03:51:17;9.05;;;4.13;;
15748;SDS011;7976;52.526;13.326;2023-04-24T03:53:49;9.35;;;4.13;;
15748;SDS011;7976;52.526;13.326;2023-04-24T03:56:19;9.95;;;4.22;;
15748;SDS011;7976;52.526;13.326;2023-04-24T03:58:46;10.23;;;4.28;;
15748;SDS011;7976;52.526;13.326;2023-04-24T04:01:12;9.68;;;4.40;;
15748;SDS011;7976;52.526;13.326;2023-04-24T04:03:58;10.98;;;4.75;;
15748;SDS011;7976;52.526;13.326;2023-04-24T04:06:26;9.77;;;4.35;;
15748;SDS011;7976;52.526;13.326;2023-04-24T04:08:56;8.88;;;3.92;;
15748;SDS011;7976;52.526;13.326;2023-04-24T04:11:24;10.43;;;4.15;;
15748;SDS011;7976;52.526;13.326;2023-04-24T04:13:51;10.48;;;4.20;;
15748;SDS011;7976;52.526;13.326;2023-04-24T04:16:20;11.20;;;3.95;;
15748;SDS011;7976;52.526;13.326;2023-04-24T04:18:50;8.25;;;3.72;;
15748;SDS011;7976;52.526;13.326;2023-04-24T04:21:17;9.68;;;3.90;;
15748;SDS011;7976;52.526;13.326;2023-04-24T04:23:44;9.55;;;4.15;;
15748;SDS011;7976;52.526;13.326;2023-04-24T04:26:17;8.82;;;3.90;;
15748;SDS011;7976;52.526;13.326;2023-04-24T04:28:56;10.55;;;4.05;;
15748;SDS011;7976;52.526;13.326;2023-04-24T04:31:23;9.63;;;3.78;;
15748;SDS011;7976;52.526;13.326;2023-04-24T04:33:51;9.90;;;4.05;;
15748;SDS011;7976;52.526;13.326;2023-04-24T04:36:18;10.60;;;4.68;;
15748;SDS011;7976;52.526;13.326;2023-04-24T04:38:50;10.35;;;3.88;;
15748;SDS011;7976;52.526;13.326;2023-04-24T04:41:37;10.25;;;4.25;;
15748;SDS011;7976;52.526;13.326;2023-04-24T04:44:06;10.07;;;4.25;;
15748;SDS011;7976;52.526;13.326;2023-04-24T04:46:33;10.35;;;4.68;;
15748;SDS011;7976;52.526;13.326;2023-04-24T04:49:16;9.40;;;4.00;;
15748;SDS011;7976;52.526;13.326;2023-04-24T04:51:44;10.07;;;4.15;;
15748;SDS011;7976;52.526;13.326;2023-04-24T04:54:12;8.63;;;4.00;;
15748;SDS011;7976;52.526;13.326;2023-04-24T04:56:40;9.95;;;4.10;;
15748;SDS011;7976;52.526;13.326;2023-04-24T04:59:07;8.98;;;3.80;;
15748;SDS011;7976;52.526;13.326;2023-04-24T05:01:36;9.40;;;3.90;;
15748;SDS011;7976;52.526;13.326;2023-04-24T05:04:05;8.35;;;3.20;;
15748;SDS011;7976;52.526;13.326;2023-04-24T05:06:32;10.32;;;4.00;;
15748;SDS011;7976;52.526;13.326;2023-04-24T05:08:59;9.23;;;3.95;;
15748;SDS011;7976;52.526;13.326;2023-04-24T05:11:38;10.10;;;4.03;;
15748;SDS011;7976;52.526;13.326;2023-04-24T05:14:06;9.68;;;4.18;;
15748;SDS011;7976;52.526;13.326;2023-04-24T05:16:36;9.15;;;3.67;;
15748;SDS011;7976;52.526;13.326;2023-04-24T05:19:04;9.95;;;3.70;;
15748;SDS011;7976;52.526;13.326;2023-04-24T05:21:35;8.18;;;3.55;;
15748;SDS011;7976;52.526;13.326;2023-04-24T05:24:02;10.52;;;3.47;;
15748;SDS011;7976;52.526;13.326;2023-04-24T05:26:44;8.52;;;3.38;;
15748;SDS011;7976;52.526;13.326;2023-04-24T05:29:16;9.23;;;3.63;;
15748;SDS011;7976;52.526;13.326;2023-04-24T05:31:44;7.80;;;3.20;;
15748;SDS011;7976;52.526;13.326;2023-04-24T05:34:11;8.85;;;3.22;;
15748;SDS011;7976;52.526;13.326;2023-04-24T05:36:41;8.30;;;3.20;;
15748;SDS011;7976;52.526;13.326;2023-04-24T05:39:08;8.82;;;3.53;;
15748;SDS011;7976;52.526;13.326;2023-04-24T05:41:36;6.65;;;3.03;;
15748;SDS011;7976;52.526;13.326;2023-04-24T05:44:04;10.10;;;3.38;;
15748;SDS011;7976;52.526;13.326;2023-04-24T05:46:30;7.22;;;3.20;;
15748;SDS011;7976;52.526;13.326;2023-04-24T05:48:57;7.55;;;2.80;;
15748;SDS011;7976;52.526;13.326;2023-04-24T05:51:24;6.93;;;2.67;;
15748;SDS011;7976;52.526;13.326;2023-04-24T05:53:51;9.05;;;2.80;;
15748;SDS011;7976;52.526;13.326;2023-04-24T05:56:18;7.72;;;2.75;;
15748;SDS011;7976;52.526;13.326;2023-04-24T05:58:45;7.97;;;2.63;;
15748;SDS011;7976;52.526;13.326;2023-04-24T06:01:14;6.85;;;2.42;;
15748;SDS011;7976;52.526;13.326;2023-04-24T06:03:44;6.45;;;2.65;;
15748;SDS011;7976;52.526;13.326;2023-04-24T06:06:11;7.82;;;2.85;;
15748;SDS011;7976;52.526;13.326;2023-04-24T06:08:38;6.78;;;2.58;;
15748;SDS011;7976;52.526;13.326;2023-04-24T06:11:05;6.53;;;2.33;;
15748;SDS011;7976;52.526;13.326;2023-04-24T06:13:32;6.65;;;2.40;;
15748;SDS011;7976;52.526;13.326;2023-04-24T06:16:20;6.57;;;2.30;;
15748;SDS011;7976;52.526;13.326;2023-04-24T06:18:54;5.18;;;1.90;;
15748;SDS011;7976;52.526;13.326;2023-04-24T06:21:21;6.53;;;2.30;;
15748;SDS011;7976;52.526;13.326;2023-04-24T06:23:49;8.13;;;2.20;;
15748;SDS011;7976;52.526;13.326;2023-04-24T06:26:16;6.95;;;2.20;;
15748;SDS011;7976;52.526;13.326;2023-04-24T06:28:43;7.15;;;2.45;;
15748;SDS011;7976;52.526;13.326;2023-04-24T06:31:10;6.22;;;1.90;;
15748;SDS011;7976;52.526;13.326;2023-04-24T06:33:38;6.13;;;1.80;;
15748;SDS011;7976;52.526;13.326;2023-04-24T06:36:05;5.72;;;1.80;;
15748;SDS011;7976;52.526;13.326;2023-04-24T06:38:32;5.43;;;1.73;;
15748;SDS011;7976;52.526;13.326;2023-04-24T06:41:00;6.15;;;2.03;;
15748;SDS011;7976;52.526;13.326;2023-04-24T06:43:28;5.15;;;1.80;;
15748;SDS011;7976;52.526;13.326;2023-04-24T06:45:55;5.93;;;1.70;;
15748;SDS011;7976;52.526;13.326;2023-04-24T06:48:22;4.25;;;1.65;;
15748;SDS011;7976;52.526;13.326;2023-04-24T06:50:50;6.60;;;1.65;;
15748;SDS011;7976;52.526;13.326;2023-04-24T06:53:18;8.07;;;1.73;;
15748;SDS011;7976;52.526;13.326;2023-04-24T06:55:45;3.60;;;1.40;;
15748;SDS011;7976;52.526;13.326;2023-04-24T06:58:12;6.00;;;1.52;;
15748;SDS011;7976;52.526;13.326;2023-04-24T07:00:40;3.50;;;1.42;;
15748;SDS011;7976;52.526;13.326;2023-04-24T07:03:07;3.40;;;1.30;;
15748;SDS011;7976;52.526;13.326;2023-04-24T07:05:33;4.60;;;1.50;;
15748;SDS011;7976;52.526;13.326;2023-04-24T07:08:03;3.63;;;1.30;;
15748;SDS011;7976;52.526;13.326;2023-04-24T07:10:31;5.32;;;1.63;;
15748;SDS011;7976;52.526;13.326;2023-04-24T07:13:00;3.53;;;1.20;;
15748;SDS011;7976;52.526;13.326;2023-04-24T07:15:27;5.50;;;1.33;;
15748;SDS011;7976;52.526;13.326;2023-04-24T07:17:54;4.53;;;0.98;;
15748;SDS011;7976;52.526;13.326;2023-04-24T07:20:21;3.53;;;1.13;;
15748;SDS011;7976;52.526;13.326;2023-04-24T07:22:48;3.17;;;0.95;;
15748;SDS011;7976;52.526;13.326;2023-04-24T07:25:17;2.25;;;1.00;;
15748;SDS011;7976;52.526;13.326;2023-04-24T07:27:45;3.67;;;1.10;;
15748;SDS011;7976;52.526;13.326;2023-04-24T07:30:12;2.38;;;0.90;;
15748;SDS011;7976;52.526;13.326;2023-04-24T07:32:39;3.28;;;1.08;;
15748;SDS011;7976;52.526;13.326;2023-04-24T07:35:06;3.42;;;1.20;;
15748;SDS011;7976;52.526;13.326;2023-04-24T07:37:34;2.75;;;0.90;;
15748;SDS011;7976;52.526;13.326;2023-04-24T07:40:01;6.35;;;1.65;;
15748;SDS011;7976;52.526;13.326;2023-04-24T07:42:30;4.47;;;1.10;;
15748;SDS011;7976;52.526;13.326;2023-04-24T07:44:59;3.60;;;1.08;;
15748;SDS011;7976;52.526;13.326;2023-04-24T07:47:26;3.13;;;1.10;;
15748;SDS011;7976;52.526;13.326;2023-04-24T07:49:53;4.00;;;1.17;;
15748;SDS011;7976;52.526;13.326;2023-04-24T07:52:20;3.60;;;0.90;;
15748;SDS011;7976;52.526;13.326;2023-04-24T07:54:46;2.28;;;0.90;;
15748;SDS011;7976;52.526;13.326;2023-04-24T07:57:14;2.17;;;0.90;;
15748;SDS011;7976;52.526;13.326;2023-04-24T07:59:43;2.70;;;1.00;;
15748;SDS011;7976;52.526;13.326;2023-04-24T08:02:09;4.53;;;1.00;;
15748;SDS011;7976;52.526;13.326;2023-04-24T08:04:36;2.80;;;0.70;;
15748;SDS011;7976;52.526;13.326;2023-04-24T08:07:03;1.52;;;0.80;;
15748;SDS011;7976;52.526;13.326;2023-04-24T08:09:30;3.22;;;1.10;;
15748;SDS011;7976;52.526;13.326;2023-04-24T08:11:57;3.08;;;1.20;;
15748;SDS011;7976;52.526;13.326;2023-04-24T08:14:23;5.53;;;1.20;;
15748;SDS011;7976;52.526;13.326;2023-04-24T08:16:53;2.10;;;0.90;;
15748;SDS011;7976;52.526;13.326;2023-04-24T08:19:21;2.05;;;0.90;;
15748;SDS011;7976;52.526;13.326;2023-04-24T08:21:48;4.40;;;1.10;;
15748;SDS011;7976;52.526;13.326;2023-04-24T08:24:15;2.80;;;1.05;;
15748;SDS011;7976;52.526;13.326;2023-04-24T08:26:41;3.53;;;0.98;;
15748;SDS011;7976;52.526;13.326;2023-04-24T08:29:08;5.07;;;1.70;;
15748;SDS011;7976;52.526;13.326;2023-04-24T08:31:35;5.07;;;1.48;;
15748;SDS011;7976;52.526;13.326;2023-04-24T08:34:03;4.05;;;1.23;;
15748;SDS011;7976;52.526;13.326;2023-04-24T08:36:30;2.08;;;0.93;;
15748;SDS011;7976;52.526;13.326;2023-04-24T08:38:58;2.03;;;0.70;;
15748;SDS011;7976;52.526;13.326;2023-04-24T08:41:25;3.80;;;1.00;;
15748;SDS011;7976;52.526;13.326;2023-04-24T08:43:53;1.85;;;0.70;;
15748;SDS011;7976;52.526;13.326;2023-04-24T08:46:23;2.92;;;1.15;;
15748;SDS011;7976;52.526;13.326;2023-04-24T08:48:51;3.13;;;1.15;;
15748;SDS011;7976;52.526;13.326;2023-04-24T08:51:20;3.47;;;1.08;;
15748;SDS011;7976;52.526;13.326;2023-04-24T08:53:47;3.67;;;1.00;;
15748;SDS011;7976;52.526;13.326;2023-04-24T08:56:15;4.55;;;1.13;;
15748;SDS011;7976;52.526;13.326;2023-04-24T08:58:42;2.83;;;0.90;;
15748;SDS011;7976;52.526;13.326;2023-04-24T09:01:10;6.07;;;1.80;;
15748;SDS011;7976;52.526;13.326;2023-04-24T09:03:38;3.72;;;1.35;;
15748;SDS011;7976;52.526;13.326;2023-04-24T09:06:06;2.55;;;0.75;;
15748;SDS011;7976;52.526;13.326;2023-04-24T09:08:37;2.45;;;0.98;;
15748;SDS011;7976;52.526;13.326;2023-04-24T09:11:08;1.48;;;0.80;;
15748;SDS011;7976;52.526;13.326;2023-04-24T09:13:36;3.10;;;1.05;;
15748;SDS011;7976;52.526;13.326;2023-04-24T09:16:03;2.60;;;0.90;;
15748;SDS011;7976;52.526;13.326;2023-04-24T09:18:30;3.72;;;1.05;;
15748;SDS011;7976;52.526;13.326;2023-04-24T09:20:59;2.53;;;1.00;;
15748;SDS011;7976;52.526;13.326;2023-04-24T09:23:28;4.75;;;1.20;;
15748;SDS011;7976;52.526;13.326;2023-04-24T09:25:58;5.15;;;1.23;;
15748;SDS011;7976;52.526;13.326;2023-04-24T09:28:31;4.70;;;1.20;;
15748;SDS011;7976;52.526;13.326;2023-04-24T09:31:02;2.58;;;0.90;;
15748;SDS011;7976;52.526;13.326;2023-04-24T09:33:31;3.70;;;1.17;;
15748;SDS011;7976;52.526;13.326;2023-04-24T09:35:58;3.20;;;1.15;;
15748;SDS011;7976;52.526;13.326;2023-04-24T09:38:32;3.05;;;1.00;;
15748;SDS011;7976;52.526;13.326;2023-04-24T09:41:03;4.15;;;1.27;;
15748;SDS011;7976;52.526;13.326;2023-04-24T09:43:33;3.70;;;1.13;;
15748;SDS011;7976;52.526;13.326;2023-04-24T09:46:04;3.60;;;1.38;;
15748;SDS011;7976;52.526;13.326;2023-04-24T09:48:35;4.53;;;1.50;;
15748;SDS011;7976;52.526;13.326;2023-04-24T09:51:03;4.53;;;1.20;;
15748;SDS011;7976;52.526;13.326;2023-04-24T09:53:35;2.50;;;0.90;;
15748;SDS011;7976;52.526;13.326;2023-04-24T09:56:08;4.60;;;1.08;;
15748;SDS011;7976;52.526;13.326;2023-04-24T09:58:37;3.35;;;1.15;;
15748;SDS011;7976;52.526;13.326;2023-04-24T10:01:05;5.18;;;1.27;;
15748;SDS011;7976;52.526;13.326;2023-04-24T10:03:32;3.80;;;1.17;;
15748;SDS011;7976;52.526;13.326;2023-04-24T10:06:00;3.80;;;1.20;;
15748;SDS011;7976;52.526;13.326;2023-04-24T10:08:33;4.63;;;1.23;;
15748;SDS011;7976;52.526;13.326;2023-04-24T10:11:01;4.53;;;1.15;;
15748;SDS011;7976;52.526;13.326;2023-04-24T10:13:30;7.70;;;1.20;;
15748;SDS011;7976;52.526;13.326;2023-04-24T10:15:58;2.58;;;1.00;;
15748;SDS011;7976;52.526;13.326;2023-04-24T10:18:29;2.50;;;1.00;;
15748;SDS011;7976;52.526;13.326;2023-04-24T10:20:57;2.47;;;1.10;;
15748;SDS011;7976;52.526;13.326;2023-04-24T10:23:27;4.85;;;1.33;;
15748;SDS011;7976;52.526;13.326;2023-04-24T10:25:56;4.20;;;1.20;;
15748;SDS011;7976;52.526;13.326;2023-04-24T10:28:24;3.08;;;1.02;;
15748;SDS011;7976;52.526;13.326;2023-04-24T10:30:55;5.28;;;1.30;;
15748;SDS011;7976;52.526;13.326;2023-04-24T10:33:23;4.20;;;1.38;;
15748;SDS011;7976;52.526;13.326;2023-04-24T10:35:51;4.13;;;1.02;;
15748;SDS011;7976;52.526;13.326;2023-04-24T10:38:21;3.88;;;1.20;;
15748;SDS011;7976;52.526;13.326;2023-04-24T10:40:54;2.72;;;1.00;;
15748;SDS011;7976;52.526;13.326;2023-04-24T10:43:33;3.20;;;1.20;;
15748;SDS011;7976;52.526;13.326;2023-04-24T10:46:02;1.92;;;0.98;;
15748;SDS011;7976;52.526;13.326;2023-04-24T10:48:31;3.83;;;1.35;;
15748;SDS011;7976;52.526;13.326;2023-04-24T10:50:58;3.45;;;1.20;;
15748;SDS011;7976;52.526;13.326;2023-04-24T10:53:27;4.40;;;1.40;;
15748;SDS011;7976;52.526;13.326;2023-04-24T10:55:59;7.05;;;1.60;;
15748;SDS011;7976;52.526;13.326;2023-04-24T10:58:37;5.88;;;1.48;;
15748;SDS011;7976;52.526;13.326;2023-04-24T11:01:11;4.63;;;1.20;;
15748;SDS011;7976;52.526;13.326;2023-04-24T11:03:53;4.03;;;1.30;;
15748;SDS011;7976;52.526;13.326;2023-04-24T11:06:28;4.28;;;1.10;;
15748;SDS011;7976;52.526;13.326;2023-04-24T11:09:02;3.92;;;1.23;;
15748;SDS011;7976;52.526;13.326;2023-04-24T11:11:31;3.28;;;1.10;;
15748;SDS011;7976;52.526;13.326;2023-04-24T11:14:03;5.15;;;1.50;;
15748;SDS011;7976;52.526;13.326;2023-04-24T11:16:34;4.10;;;1.27;;
15748;SDS011;7976;52.526;13.326;2023-04-24T11:19:05;4.00;;;1.30;;
15748;SDS011;7976;52.526;13.326;2023-04-24T11:21:40;4.65;;;1.48;;
15748;SDS011;7976;52.526;13.326;2023-04-24T11:24:25;3.60;;;1.13;;
15748;SDS011;7976;52.526;13.326;2023-04-24T11:26:56;4.25;;;1.42;;
15748;SDS011;7976;52.526;13.326;2023-04-24T11:29:39;5.45;;;1.60;;
15748;SDS011;7976;52.526;13.326;2023-04-24T11:32:17;5.47;;;1.27;;
15748;SDS011;7976;52.526;13.326;2023-04-24T11:34:53;4.63;;;1.48;;
15748;SDS011;7976;52.526;13.326;2023-04-24T11:37:22;5.03;;;1.45;;
15748;SDS011;7976;52.526;13.326;2023-04-24T11:39:52;4.32;;;1.45;;
15748;SDS011;7976;52.526;13.326;2023-04-24T11:42:21;9.00;;;1.80;;
15748;SDS011;7976;52.526;13.326;2023-04-24T11:44:49;5.22;;;1.55;;
15748;SDS011;7976;52.526;13.326;2023-04-24T11:47:19;6.40;;;1.70;;
15748;SDS011;7976;52.526;13.326;2023-04-24T11:49:46;5.95;;;1.55;;
15748;SDS011;7976;52.526;13.326;2023-04-24T11:52:15;5.57;;;1.70;;
15748;SDS011;7976;52.526;13.326;2023-04-24T11:54:46;5.68;;;1.80;;
15748;SDS011;7976;52.526;13.326;2023-04-24T11:57:15;4.13;;;1.50;;
15748;SDS011;7976;52.526;13.326;2023-04-24T11:59:41;8.55;;;2.05;;
15748;SDS011;7976;52.526;13.326;2023-04-24T12:02:08;8.15;;;2.80;;
15748;SDS011;7976;52.526;13.326;2023-04-24T12:04:47;4.55;;;1.73;;
15748;SDS011;7976;52.526;13.326;2023-04-24T12:07:14;7.47;;;1.90;;
15748;SDS011;7976;52.526;13.326;2023-04-24T12:09:42;4.63;;;1.83;;
15748;SDS011;7976;52.526;13.326;2023-04-24T12:12:10;3.63;;;1.70;;
15748;SDS011;7976;52.526;13.326;2023-04-24T12:14:42;4.00;;;1.45;;
15748;SDS011;7976;52.526;13.326;2023-04-24T12:17:10;3.30;;;1.40;;
15748;SDS011;7976;52.526;13.326;2023-04-24T12:19:44;4.10;;;1.30;;
15748;SDS011;7976;52.526;13.326;2023-04-24T12:22:12;3.72;;;1.20;;
15748;SDS011;7976;52.526;13.326;2023-04-24T12:24:56;3.00;;;1.23;;
15748;SDS011;7976;52.526;13.326;2023-04-24T12:27:25;3.53;;;1.30;;
15748;SDS011;7976;52.526;13.326;2023-04-24T12:29:53;3.85;;;1.30;;
15748;SDS011;7976;52.526;13.326;2023-04-24T12:32:22;3.35;;;1.30;;
15748;SDS011;7976;52.526;13.326;2023-04-24T12:34:51;4.10;;;1.13;;
15748;SDS011;7976;52.526;13.326;2023-04-24T12:37:19;2.70;;;1.25;;
15748;SDS011;7976;52.526;13.326;2023-04-24T12:39:59;4.05;;;1.20;;
15748;SDS011;7976;52.526;13.326;2023-04-24T12:42:29;2.80;;;1.00;;
15748;SDS011;7976;52.526;13.326;2023-04-24T12:44:57;3.10;;;1.00;;
15748;SDS011;7976;52.526;13.326;2023-04-24T12:47:26;2.53;;;0.90;;
15748;SDS011;7976;52.526;13.326;2023-04-24T12:49:55;2.88;;;1.00;;
15748;SDS011;7976;52.526;13.326;2023-04-24T12:52:22;2.22;;;1.13;;
15748;SDS011;7976;52.526;13.326;2023-04-24T12:54:52;4.78;;;1.35;;
15748;SDS011;7976;52.526;13.326;2023-04-24T12:57:20;2.53;;;1.08;;
15748;SDS011;7976;52.526;13.326;2023-04-24T12:59:48;2.30;;;0.85;;
15748;SDS011;7976;52.526;13.326;2023-04-24T13:02:15;4.13;;;0.93;;
15748;SDS011;7976;52.526;13.326;2023-04-24T13:04:43;3.22;;;1.00;;
15748;SDS011;7976;52.526;13.326;2023-04-24T13:07:13;3.33;;;1.08;;
15748;SDS011;7976;52.526;13.326;2023-04-24T13:09:40;3.65;;;1.23;;
15748;SDS011;7976;52.526;13.326;2023-04-24T13:12:08;2.70;;;1.00;;
15748;SDS011;7976;52.526;13.326;2023-04-24T13:14:36;2.97;;;1.27;;
15748;SDS011;7976;52.526;13.326;2023-04-24T13:17:04;3.42;;;1.20;;
15748;SDS011;7976;52.526;13.326;2023-04-24T13:19:35;3.22;;;1.10;;
15748;SDS011;7976;52.526;13.326;2023-04-24T13:22:03;5.00;;;1.05;;
15748;SDS011;7976;52.526;13.326;2023-04-24T13:24:32;4.03;;;1.10;;
15748;SDS011;7976;52.526;13.326;2023-04-24T13:26:59;4.65;;;1.10;;
15748;SDS011;7976;52.526;13.326;2023-04-24T13:29:27;3.67;;;0.93;;
15748;SDS011;7976;52.526;13.326;2023-04-24T13:31:54;4.53;;;1.27;;
15748;SDS011;7976;52.526;13.326;2023-04-24T13:34:22;2.80;;;1.10;;
15748;SDS011;7976;52.526;13.326;2023-04-24T13:36:49;1.75;;;0.95;;
15748;SDS011;7976;52.526;13.326;2023-04-24T13:39:16;7.15;;;1.20;;
15748;SDS011;7976;52.526;13.326;2023-04-24T13:41:45;3.70;;;1.20;;
15748;SDS011;7976;52.526;13.326;2023-04-24T13:44:13;3.00;;;1.10;;
15748;SDS011;7976;52.526;13.326;2023-04-24T13:46:40;4.18;;;1.00;;
15748;SDS011;7976;52.526;13.326;2023-04-24T13:49:08;2.50;;;0.90;;
15748;SDS011;7976;52.526;13.326;2023-04-24T13:51:35;2.97;;;1.20;;
15748;SDS011;7976;52.526;13.326;2023-04-24T13:54:02;4.63;;;1.30;;
15748;SDS011;7976;52.526;13.326;2023-04-24T13:56:29;4.95;;;1.48;;
15748;SDS011;7976;52.526;13.326;2023-04-24T13:58:57;1.50;;;0.90;;
15748;SDS011;7976;52.526;13.326;2023-04-24T14:01:24;3.63;;;1.15;;
15748;SDS011;7976;52.526;13.326;2023-04-24T14:03:51;5.03;;;1.65;;
15748;SDS011;7976;52.526;13.326;2023-04-24T14:06:19;3.50;;;1.10;;
15748;SDS011;7976;52.526;13.326;2023-04-24T14:08:48;3.65;;;1.10;;
15748;SDS011;7976;52.526;13.326;2023-04-24T14:11:16;2.03;;;0.90;;
15748;SDS011;7976;52.526;13.326;2023-04-24T14:13:43;3.40;;;1.05;;
15748;SDS011;7976;52.526;13.326;2023-04-24T14:16:12;2.40;;;0.90;;
15748;SDS011;7976;52.526;13.326;2023-04-24T14:18:40;2.97;;;1.05;;
15748;SDS011;7976;52.526;13.326;2023-04-24T14:21:06;5.50;;;1.13;;
15748;SDS011;7976;52.526;13.326;2023-04-24T14:23:33;3.65;;;1.20;;
15748;SDS011;7976;52.526;13.326;2023-04-24T14:26:00;3.28;;;0.93;;
15748;SDS011;7976;52.526;13.326;2023-04-24T14:28:27;3.53;;;1.20;;
15748;SDS011;7976;52.526;13.326;2023-04-24T14:30:54;2.70;;;1.10;;
15748;SDS011;7976;52.526;13.326;2023-04-24T14:33:22;3.78;;;1.30;;
15748;SDS011;7976;52.526;13.326;2023-04-24T14:35:49;4.05;;;1.40;;
15748;SDS011;7976;52.526;13.326;2023-04-24T14:38:16;1.83;;;0.95;;
15748;SDS011;7976;52.526;13.326;2023-04-24T14:40:42;3.58;;;1.25;;
15748;SDS011;7976;52.526;13.326;2023-04-24T14:43:09;3.40;;;1.02;;
15748;SDS011;7976;52.526;13.326;2023-04-24T14:45:37;3.33;;;1.27;;
15748;SDS011;7976;52.526;13.326;2023-04-24T14:48:05;4.53;;;1.30;;
15748;SDS011;7976;52.526;13.326;2023-04-24T14:50:35;3.70;;;1.33;;
15748;SDS011;7976;52.526;13.326;2023-04-24T14:53:02;5.25;;;1.30;;
15748;SDS011;7976;52.526;13.326;2023-04-24T14:55:29;2.97;;;1.30;;